createdAt,value
2022-12-22T00:03:43.587Z,14.93
2022-12-22T00:09:05.782Z,13.77
2022-12-22T00:14:26.112Z,14.97
2022-12-22T00:19:44.592Z,14.40
2022-12-22T00:25:07.533Z,14.33
2022-12-22T00:30:30.271Z,15.13
2022-12-22T00:35:48.041Z,14.00
2022-12-22T00:41:07.960Z,14.33
2022-12-22T00:46:27.865Z,12.43
2022-12-22T00:51:46.438Z,14.77
2022-12-22T00:57:06.298Z,14.07
2022-12-22T01:02:23.872Z,14.73
2022-12-22T01:07:42.301Z,15.47
2022-12-22T01:13:02.382Z,14.50
2022-12-22T01:18:20.765Z,16.63
2022-12-22T01:23:39.203Z,14.70
2022-12-22T01:28:59.193Z,15.13
2022-12-22T01:34:16.537Z,15.63
2022-12-22T01:39:33.896Z,15.50
2022-12-22T01:44:53.858Z,15.60
2022-12-22T01:50:11.171Z,14.10
2022-12-22T01:55:32.731Z,12.47
2022-12-22T02:00:52.644Z,12.57
2022-12-22T02:06:20.871Z,13.63
2022-12-22T02:11:51.156Z,12.33
2022-12-22T02:17:19.794Z,13.77
2022-12-22T02:22:51.772Z,13.13
2022-12-22T02:28:12.964Z,13.50
2022-12-22T02:33:30.461Z,12.93
2022-12-22T02:39:00.138Z,13.67
2022-12-22T02:44:34.126Z,13.37
2022-12-22T02:49:55.607Z,13.50
2022-12-22T02:55:14.216Z,13.67
2022-12-22T03:00:34.529Z,12.93
2022-12-22T03:05:52.112Z,14.20
2022-12-22T03:11:09.510Z,14.03
2022-12-22T03:16:29.623Z,14.50
2022-12-22T03:21:46.872Z,15.10
2022-12-22T03:26:51.828Z,15.77
2022-12-22T03:31:59.399Z,15.13
2022-12-22T03:37:04.385Z,15.83
2022-12-22T03:42:21.913Z,16.47
2022-12-22T03:47:29.494Z,14.03
2022-12-22T03:52:34.467Z,16.63
2022-12-22T03:57:41.774Z,14.70
2022-12-22T04:02:49.362Z,14.27
2022-12-22T04:07:57.596Z,16.10
2022-12-22T04:13:02.664Z,15.60
2022-12-22T04:18:15.322Z,16.07
2022-12-22T04:23:21.763Z,16.30
2022-12-22T04:28:26.873Z,15.63
2022-12-22T04:33:35.677Z,15.13
2022-12-22T04:38:41.119Z,16.00
2022-12-22T04:43:46.196Z,14.93
2022-12-22T04:48:59.660Z,15.97
2022-12-22T04:54:05.696Z,14.93
2022-12-22T04:59:10.854Z,14.67
2022-12-22T05:04:23.495Z,16.43
2022-12-22T05:09:28.833Z,14.33
2022-12-22T05:14:35.108Z,15.30
2022-12-22T05:19:43.576Z,14.40
2022-12-22T05:24:48.502Z,15.10
2022-12-22T05:29:53.413Z,14.47
2022-12-22T05:35:04.315Z,13.90
2022-12-22T05:40:10.971Z,14.27
2022-12-22T05:45:19.875Z,13.93
2022-12-22T05:50:28.291Z,13.83
2022-12-22T05:55:37.669Z,14.07
2022-12-22T06:00:45.010Z,13.93
2022-12-22T06:05:55.889Z,14.40
2022-12-22T06:11:02.085Z,15.40
2022-12-22T06:16:07.390Z,14.50
2022-12-22T06:21:14.963Z,15.17
2022-12-22T06:26:20.910Z,15.03
2022-12-22T06:31:26.491Z,14.77
2022-12-22T06:36:36.671Z,14.87
2022-12-22T06:41:59.701Z,13.70
2022-12-22T06:47:04.837Z,15.03
2022-12-22T06:52:14.972Z,14.40
2022-12-22T06:57:19.955Z,13.80
2022-12-22T07:02:25.366Z,14.60
2022-12-22T07:07:33.128Z,13.87
2022-12-22T07:12:38.225Z,13.67
2022-12-22T07:17:44.186Z,14.10
2022-12-22T07:22:51.847Z,14.17
2022-12-22T07:27:56.747Z,13.67
2022-12-22T07:33:01.724Z,12.73
2022-12-22T07:38:11.535Z,13.23
2022-12-22T07:43:16.418Z,12.57
2022-12-22T07:48:34.630Z,13.13
2022-12-22T07:53:44.126Z,13.73
2022-12-22T07:58:51.693Z,12.77
2022-12-22T08:03:58.307Z,13.37
2022-12-22T08:09:09.911Z,12.40
2022-12-22T08:14:17.651Z,12.53
2022-12-22T08:19:22.677Z,13.20
2022-12-22T08:24:30.525Z,14.73
2022-12-22T08:29:41.531Z,13.93
2022-12-22T08:34:49.403Z,12.83
2022-12-22T08:40:01.029Z,12.63
2022-12-22T08:45:13.825Z,12.17
2022-12-22T08:50:18.958Z,12.03
2022-12-22T08:55:26.535Z,12.47
2022-12-22T09:00:37.736Z,12.47
2022-12-22T09:05:42.895Z,12.27
2022-12-22T09:10:51.093Z,11.20
2022-12-22T09:15:59.373Z,12.00
2022-12-22T09:21:04.992Z,10.40
2022-12-22T09:26:17.556Z,11.77
2022-12-22T09:31:29.660Z,12.03
2022-12-22T09:36:35.403Z,11.97
2022-12-22T09:41:51.029Z,12.13
2022-12-22T09:46:57.774Z,12.20
2022-12-22T09:52:06.202Z,11.60
2022-12-22T09:57:17.641Z,11.20
2022-12-22T10:02:31.811Z,11.43
2022-12-22T10:07:40.222Z,12.20
2022-12-22T10:12:48.741Z,11.90
2022-12-22T10:17:56.865Z,11.33
2022-12-22T10:23:06.878Z,11.83
2022-12-22T10:28:22.471Z,11.93
2022-12-22T10:33:27.373Z,10.93
2022-12-22T10:38:36.346Z,11.07
2022-12-22T10:43:51.158Z,10.73
2022-12-22T10:49:10.973Z,11.00
2022-12-22T10:54:29.165Z,10.40
2022-12-22T10:59:37.481Z,10.40
2022-12-22T11:04:45.617Z,10.30
2022-12-22T11:09:50.783Z,10.13
2022-12-22T11:15:08.833Z,10.47
2022-12-22T11:20:33.684Z,10.00
2022-12-22T11:25:50.495Z,9.27
2022-12-22T11:31:12.779Z,9.67
2022-12-22T11:36:28.112Z,10.23
2022-12-22T11:41:47.204Z,9.73
2022-12-22T11:47:02.728Z,8.00
2022-12-22T11:52:31.990Z,8.00
2022-12-22T11:57:49.039Z,7.87
2022-12-22T12:03:18.503Z,8.53
2022-12-22T12:08:35.666Z,8.00
2022-12-22T12:13:48.154Z,8.07
2022-12-22T12:19:23.152Z,6.57
2022-12-22T12:24:55.578Z,6.83
2022-12-22T12:35:53.771Z,6.97
2022-12-22T12:41:12.855Z,7.23
2022-12-22T12:46:57.341Z,7.20
2022-12-22T12:52:06.487Z,6.57
2022-12-22T12:57:28.721Z,6.43
2022-12-22T13:02:43.174Z,6.07
2022-12-22T13:08:14.992Z,6.57
2022-12-22T13:13:50.840Z,5.47
2022-12-22T13:19:03.028Z,6.37
2022-12-22T13:24:25.698Z,6.27
2022-12-22T13:29:42.187Z,7.63
2022-12-22T13:35:29.228Z,7.33
2022-12-22T13:40:24.341Z,6.93
2022-12-22T13:45:43.040Z,7.10
2022-12-22T13:50:51.802Z,7.10
2022-12-22T13:56:04.256Z,9.60
2022-12-22T14:01:19.263Z,10.60
2022-12-22T14:06:30.439Z,11.10
2022-12-22T14:11:38.402Z,14.40
2022-12-22T14:16:50.870Z,9.10
2022-12-22T14:22:08.382Z,9.40
2022-12-22T14:27:28.884Z,8.80
2022-12-22T14:32:49.124Z,10.10
2022-12-22T14:38:10.783Z,11.40
2022-12-22T14:43:35.312Z,8.67
2022-12-22T14:48:43.410Z,5.33
2022-12-22T14:53:55.994Z,3.00
2022-12-22T14:59:26.607Z,1.87
2022-12-22T15:04:34.191Z,1.40
2022-12-22T15:15:17.153Z,1.13
2022-12-22T15:20:31.183Z,1.30
2022-12-22T15:25:40.395Z,1.00
2022-12-22T15:30:50.653Z,1.20
2022-12-22T15:35:55.732Z,1.17
2022-12-22T15:41:01.543Z,1.03
2022-12-22T15:46:10.641Z,1.60
2022-12-22T15:51:25.879Z,2.37
2022-12-22T15:56:34.717Z,1.90
2022-12-22T16:01:45.718Z,1.67
2022-12-22T16:06:53.572Z,1.87
2022-12-22T16:12:00.462Z,2.40
2022-12-22T16:17:09.250Z,2.60
2022-12-22T16:22:14.684Z,2.10
2022-12-22T16:27:20.583Z,2.07
2022-12-22T16:32:31.482Z,2.60
2022-12-22T16:37:36.778Z,1.97
2022-12-22T16:48:20.499Z,3.37
2022-12-22T16:53:25.441Z,2.97
2022-12-22T16:58:30.524Z,6.40
2022-12-22T17:03:41.939Z,7.97
2022-12-22T17:08:51.567Z,7.97
2022-12-22T17:14:01.185Z,9.27
2022-12-22T17:19:09.073Z,10.40
2022-12-22T17:24:21.597Z,9.93
2022-12-22T17:29:32.265Z,9.10
2022-12-22T17:34:40.098Z,9.00
2022-12-22T17:39:46.157Z,9.90
2022-12-22T17:44:51.833Z,9.00
2022-12-22T17:50:02.521Z,10.10
2022-12-22T17:55:08.699Z,10.10
2022-12-22T18:00:19.588Z,10.73
2022-12-22T18:05:33.980Z,10.20
2022-12-22T18:10:46.902Z,10.00
2022-12-22T18:15:55.931Z,10.70
2022-12-22T18:21:07.500Z,12.20
2022-12-22T18:26:22.330Z,11.47
2022-12-22T18:31:29.466Z,11.77
2022-12-22T18:36:39.904Z,11.80
2022-12-22T18:41:45.172Z,11.80
2022-12-22T18:46:50.630Z,12.07
2022-12-22T18:51:59.217Z,10.70
2022-12-22T18:57:04.148Z,11.40
2022-12-22T19:02:22.255Z,11.63
2022-12-22T19:07:34.528Z,12.50
2022-12-22T19:12:39.576Z,12.77
2022-12-22T19:17:45.610Z,12.33
2022-12-22T19:22:53.927Z,13.07
2022-12-22T19:28:08.074Z,11.97
2022-12-22T19:33:21.167Z,13.03
2022-12-22T19:38:30.881Z,12.83
2022-12-22T19:43:36.330Z,13.10
2022-12-22T19:48:44.814Z,13.47
2022-12-22T19:53:54.408Z,13.60
2022-12-22T19:59:01.213Z,13.50
2022-12-22T20:04:06.140Z,13.73
2022-12-22T20:09:13.787Z,13.13
2022-12-22T20:14:20.273Z,13.43
2022-12-22T20:19:26.267Z,12.93
2022-12-22T20:24:34.799Z,13.43
2022-12-22T20:29:39.800Z,12.10
2022-12-22T20:34:45.363Z,13.27
2022-12-22T20:39:53.021Z,13.77
2022-12-22T20:45:02.856Z,14.63
2022-12-22T20:50:24.041Z,12.10
2022-12-22T20:55:32.467Z,12.73
2022-12-22T21:00:37.533Z,12.60
2022-12-22T21:05:44.236Z,13.50
2022-12-22T21:10:53.253Z,12.20
2022-12-22T21:15:58.331Z,12.27
2022-12-22T21:21:03.485Z,9.90
2022-12-22T21:26:21.832Z,9.77
2022-12-22T21:31:26.940Z,9.50
2022-12-22T21:36:34.931Z,9.80
2022-12-22T21:41:55.487Z,9.83
2022-12-22T21:47:01.283Z,9.93
2022-12-22T21:52:06.509Z,9.43
2022-12-22T21:57:19.866Z,13.00
2022-12-22T22:02:25.064Z,10.67
2022-12-22T22:07:32.374Z,10.40
2022-12-22T22:12:40.407Z,9.63
2022-12-22T22:17:46.356Z,12.80
2022-12-22T22:22:53.518Z,10.87
2022-12-22T22:28:03.513Z,10.50
2022-12-22T22:33:08.881Z,10.90
2022-12-22T22:38:14.927Z,11.90
2022-12-22T22:43:22.387Z,11.60
2022-12-22T22:48:28.691Z,9.83
2022-12-22T22:53:33.764Z,9.70
2022-12-22T22:58:42.156Z,11.73
2022-12-22T23:03:47.298Z,12.43
2022-12-22T23:08:54.328Z,11.07
2022-12-22T23:14:01.974Z,11.97
2022-12-22T23:19:08.756Z,12.73
2022-12-22T23:24:17.712Z,12.83
2022-12-22T23:29:25.846Z,11.07
2022-12-22T23:34:30.965Z,11.40
2022-12-22T23:39:35.911Z,10.47
2022-12-22T23:44:45.009Z,9.13
2022-12-22T23:49:50.468Z,8.20
2022-12-22T23:54:55.443Z,9.87
